createdAt,value
2017-11-04T00:01:47.870Z,93.40
2017-11-04T00:04:21.504Z,94.10
2017-11-04T00:06:56.086Z,94.10
2017-11-04T00:09:29.795Z,94.00
2017-11-04T00:12:03.409Z,92.80
2017-11-04T00:14:37.005Z,92.90
2017-11-04T00:17:10.582Z,92.60
2017-11-04T00:19:44.217Z,92.50
2017-11-04T00:22:18.709Z,93.20
2017-11-04T00:24:52.485Z,93.20
2017-11-04T00:27:26.935Z,92.80
2017-11-04T00:30:00.600Z,92.80
2017-11-04T00:32:34.285Z,93.30
2017-11-04T00:35:07.911Z,94.10
2017-11-04T00:37:41.684Z,94.50
2017-11-04T00:40:15.282Z,94.30
2017-11-04T00:42:49.360Z,94.50
2017-11-04T00:45:23.118Z,94.80
2017-11-04T00:47:56.665Z,94.60
2017-11-04T00:50:30.206Z,95.40
2017-11-04T00:53:03.764Z,94.50
2017-11-04T00:55:37.402Z,93.90
2017-11-04T00:58:10.983Z,93.00
2017-11-04T01:00:44.598Z,92.90
2017-11-04T01:03:19.101Z,93.30
2017-11-04T01:05:52.740Z,93.20
2017-11-04T01:08:26.327Z,93.00
2017-11-04T01:10:59.920Z,92.90
2017-11-04T01:13:34.686Z,92.10
2017-11-04T01:16:08.350Z,92.00
2017-11-04T01:18:41.906Z,91.00
2017-11-04T01:21:15.565Z,90.30
2017-11-04T01:23:49.151Z,90.10
2017-11-04T01:26:22.736Z,90.30
2017-11-04T01:28:56.248Z,90.70
2017-11-04T01:31:29.853Z,90.90
2017-11-04T01:34:03.651Z,91.30
2017-11-04T01:36:37.388Z,91.80
2017-11-04T01:39:11.906Z,92.00
2017-11-04T01:41:45.470Z,92.00
2017-11-04T01:44:19.041Z,92.40
2017-11-04T01:46:52.757Z,92.70
2017-11-04T01:49:26.364Z,92.20
2017-11-04T01:52:00.668Z,92.00
2017-11-04T01:54:34.441Z,91.90
2017-11-04T01:57:08.749Z,92.20
2017-11-04T01:59:42.316Z,92.10
2017-11-04T02:02:15.949Z,91.80
2017-11-04T02:04:49.740Z,92.00
2017-11-04T02:07:23.282Z,92.20
2017-11-04T02:09:57.610Z,92.50
2017-11-04T02:12:31.256Z,92.20
2017-11-04T02:15:04.834Z,92.20
2017-11-04T02:17:38.347Z,92.00
2017-11-04T02:20:11.873Z,92.40
2017-11-04T02:22:45.443Z,92.40
2017-11-04T02:25:19.017Z,91.50
2017-11-04T02:27:52.641Z,91.50
2017-11-04T02:30:26.362Z,91.40
2017-11-04T02:32:59.982Z,90.90
2017-11-04T02:35:33.744Z,90.50
2017-11-04T02:38:07.365Z,90.40
2017-11-04T02:40:40.924Z,90.80
2017-11-04T02:43:14.475Z,91.00
2017-11-04T02:45:48.959Z,89.30
2017-11-04T02:48:23.472Z,89.50
2017-11-04T02:50:57.163Z,89.00
2017-11-04T02:53:30.706Z,89.10
2017-11-04T02:56:04.276Z,88.70
2017-11-04T02:58:37.860Z,88.40
2017-11-04T03:01:11.376Z,87.70
2017-11-04T03:03:45.006Z,89.30
2017-11-04T03:06:18.769Z,89.00
2017-11-04T03:08:52.361Z,90.10
2017-11-04T03:11:26.182Z,90.00
2017-11-04T03:13:59.688Z,90.80
2017-11-04T03:16:33.268Z,90.50
2017-11-04T03:19:06.850Z,90.80
2017-11-04T03:21:40.514Z,90.40
2017-11-04T03:24:14.089Z,90.60
2017-11-04T03:26:47.680Z,91.00
2017-11-04T03:29:21.225Z,91.20
2017-11-04T03:31:55.602Z,91.30
2017-11-04T03:34:29.287Z,91.20
2017-11-04T03:37:02.901Z,90.80
2017-11-04T03:39:36.476Z,91.40
2017-11-04T03:42:10.042Z,90.90
2017-11-04T03:44:43.615Z,91.50
2017-11-04T03:47:17.330Z,91.00
2017-11-04T03:49:50.909Z,90.80
2017-11-04T03:52:24.410Z,91.30
2017-11-04T03:54:58.013Z,91.00
2017-11-04T03:57:31.595Z,91.30
2017-11-04T04:00:06.081Z,91.50
2017-11-04T04:02:39.829Z,91.90
2017-11-04T04:05:13.428Z,91.90
2017-11-04T04:07:47.141Z,92.60
2017-11-04T04:10:20.769Z,91.60
2017-11-04T04:12:54.449Z,91.80
2017-11-04T04:15:28.066Z,91.70
2017-11-04T04:18:01.577Z,91.60
2017-11-04T04:20:35.116Z,91.50
2017-11-04T04:23:09.455Z,91.20
2017-11-04T04:25:43.781Z,91.20
2017-11-04T04:28:17.366Z,91.20
2017-11-04T04:30:50.982Z,91.60
2017-11-04T04:33:24.682Z,91.30
2017-11-04T04:35:58.354Z,91.70
2017-11-04T04:38:32.083Z,92.00
2017-11-04T04:41:05.716Z,92.30
2017-11-04T04:43:39.287Z,92.90
2017-11-04T04:46:12.977Z,93.10
2017-11-04T04:48:46.579Z,92.50
2017-11-04T04:51:20.932Z,92.50
2017-11-04T04:53:54.542Z,92.40
2017-11-04T04:56:28.833Z,91.90
2017-11-04T04:59:02.524Z,91.90
2017-11-04T05:01:36.143Z,91.80
2017-11-04T05:04:09.824Z,92.20
2017-11-04T05:06:43.435Z,92.50
2017-11-04T05:09:17.165Z,91.80
2017-11-04T05:11:50.739Z,91.50
2017-11-04T05:14:24.271Z,92.20
2017-11-04T05:16:57.839Z,92.60
2017-11-04T05:19:32.934Z,92.20
2017-11-04T05:22:06.582Z,92.20
2017-11-04T05:24:40.171Z,91.70
2017-11-04T05:27:13.815Z,91.60
2017-11-04T05:29:47.346Z,91.20
2017-11-04T05:32:21.706Z,91.00
2017-11-04T05:34:55.288Z,91.00
2017-11-04T05:37:28.881Z,91.10
2017-11-04T05:40:02.630Z,91.30
2017-11-04T05:42:36.343Z,91.80
2017-11-04T05:45:10.814Z,92.30
2017-11-04T05:47:44.465Z,92.20
2017-11-04T05:50:18.036Z,92.30
2017-11-04T05:52:51.667Z,92.10
2017-11-04T05:55:25.249Z,91.90
2017-11-04T05:57:58.831Z,92.70
2017-11-04T06:00:32.327Z,92.90
2017-11-04T06:07:39.429Z,92.50
2017-11-04T06:10:13.176Z,93.20
2017-11-04T06:12:46.739Z,93.90
2017-11-04T06:15:20.524Z,93.20
2017-11-04T06:17:54.115Z,92.80
2017-11-04T06:20:27.649Z,92.90
2017-11-04T06:23:01.240Z,93.10
2017-11-04T06:25:34.779Z,92.40
2017-11-04T06:28:08.363Z,92.40
2017-11-04T06:30:41.928Z,91.90
2017-11-04T06:33:15.559Z,93.00
2017-11-04T06:35:49.274Z,92.00
2017-11-04T06:38:22.775Z,93.70
2017-11-04T06:40:56.381Z,93.20
2017-11-04T06:43:30.186Z,92.60
2017-11-04T06:46:04.678Z,92.30
2017-11-04T06:48:38.344Z,92.20
2017-11-04T06:51:11.946Z,92.00
2017-11-04T06:53:45.559Z,92.10
2017-11-04T06:56:19.185Z,92.30
2017-11-04T06:58:52.778Z,93.30
2017-11-04T07:01:26.322Z,93.00
2017-11-04T07:03:59.907Z,92.90
2017-11-04T07:06:33.465Z,92.50
2017-11-04T07:09:07.016Z,92.50
2017-11-04T07:11:40.569Z,92.70
2017-11-04T07:14:14.160Z,92.70
2017-11-04T07:16:47.720Z,93.10
2017-11-04T07:19:21.276Z,92.60
2017-11-04T07:21:54.873Z,93.20
2017-11-04T07:24:28.453Z,93.30
2017-11-04T07:27:02.035Z,94.50
2017-11-04T07:29:35.616Z,95.50
2017-11-04T07:32:09.171Z,95.20
2017-11-04T07:34:42.745Z,95.70
2017-11-04T07:37:16.394Z,96.50
2017-11-04T07:39:49.948Z,98.30
2017-11-04T07:42:24.338Z,99.90
2017-11-04T07:44:58.816Z,99.90
2017-11-04T07:47:32.445Z,99.90
2017-11-04T07:50:06.061Z,99.90
2017-11-04T07:52:40.380Z,99.90
2017-11-04T07:55:14.654Z,99.90
2017-11-04T07:57:48.998Z,99.90
2017-11-04T08:00:22.602Z,99.90
2017-11-04T08:02:56.200Z,99.90
2017-11-04T08:05:29.678Z,99.90
2017-11-04T08:08:03.280Z,99.90
2017-11-04T08:10:39.655Z,99.90
2017-11-04T08:13:13.360Z,99.90
2017-11-04T08:15:46.846Z,99.90
2017-11-04T08:18:20.418Z,99.90
2017-11-04T08:20:54.016Z,99.90
2017-11-04T08:23:27.559Z,99.90
2017-11-04T08:26:01.067Z,99.90
2017-11-04T08:28:35.388Z,99.90
2017-11-04T08:31:09.090Z,99.90
2017-11-04T08:33:42.697Z,99.90
2017-11-04T08:36:19.339Z,99.90
2017-11-04T08:38:53.120Z,99.90
2017-11-04T08:41:26.634Z,99.90
2017-11-04T08:44:00.291Z,99.90
2017-11-04T08:46:34.026Z,99.90
2017-11-04T08:49:07.595Z,99.90
2017-11-04T08:51:41.229Z,99.90
2017-11-04T08:54:14.851Z,99.90
2017-11-04T08:56:48.471Z,99.90
2017-11-04T08:59:22.274Z,99.90
2017-11-04T09:01:56.562Z,99.90
2017-11-04T09:04:30.918Z,99.90
2017-11-04T09:07:05.403Z,99.90
2017-11-04T09:09:39.005Z,99.90
2017-11-04T09:12:12.537Z,99.90
2017-11-04T09:14:46.184Z,99.90
2017-11-04T09:17:19.793Z,99.90
2017-11-04T09:19:53.400Z,99.90
2017-11-04T09:22:26.904Z,99.90
2017-11-04T09:25:00.790Z,99.90
2017-11-04T09:27:34.588Z,99.90
2017-11-04T09:30:08.185Z,99.90
2017-11-04T09:32:41.698Z,99.90
2017-11-04T09:35:16.046Z,99.90
2017-11-04T09:37:49.624Z,99.90
2017-11-04T09:40:23.196Z,99.90
2017-11-04T09:42:56.838Z,99.90
2017-11-04T09:45:30.467Z,99.90
2017-11-04T09:48:04.146Z,99.90
2017-11-04T09:50:37.670Z,99.90
2017-11-04T09:53:11.227Z,99.90
2017-11-04T09:55:44.859Z,99.90
2017-11-04T09:58:18.410Z,99.90
2017-11-04T10:00:52.064Z,99.90
2017-11-04T10:03:25.730Z,99.90
2017-11-04T10:05:59.484Z,99.90
2017-11-04T10:08:33.039Z,99.90
2017-11-04T10:11:06.568Z,99.90
2017-11-04T10:13:40.245Z,99.90
2017-11-04T10:16:13.853Z,99.90
2017-11-04T10:18:47.348Z,99.90
2017-11-04T10:21:20.958Z,99.90
2017-11-04T10:23:54.492Z,99.90
2017-11-04T10:26:28.183Z,99.90
2017-11-04T10:29:01.741Z,99.90
2017-11-04T10:31:35.367Z,99.90
2017-11-04T10:34:09.996Z,99.90
2017-11-04T10:36:43.620Z,99.90
2017-11-04T10:39:17.153Z,99.90
2017-11-04T10:41:50.743Z,99.90
2017-11-04T10:44:24.464Z,99.90
2017-11-04T10:46:58.093Z,99.90
2017-11-04T10:49:31.787Z,99.90
2017-11-04T10:52:05.375Z,99.90
2017-11-04T10:54:38.855Z,99.90
2017-11-04T10:57:12.409Z,99.90
2017-11-04T10:59:46.129Z,99.90
2017-11-04T11:02:19.720Z,99.90
2017-11-04T11:04:53.505Z,99.90
2017-11-04T11:07:27.833Z,99.90
2017-11-04T11:10:02.226Z,99.90
2017-11-04T11:12:35.854Z,99.90
2017-11-04T11:15:09.525Z,99.90
2017-11-04T11:17:43.066Z,99.90
2017-11-04T11:20:16.714Z,99.90
2017-11-04T11:22:50.326Z,99.90
2017-11-04T11:25:23.908Z,99.90
2017-11-04T11:27:57.504Z,99.90
2017-11-04T11:30:31.196Z,99.90
2017-11-04T11:33:04.777Z,99.90
2017-11-04T11:35:38.358Z,99.90
2017-11-04T11:38:11.935Z,99.90
2017-11-04T11:40:45.680Z,99.90
2017-11-04T11:43:19.337Z,99.90
2017-11-04T11:45:52.925Z,99.90
2017-11-04T11:48:26.523Z,99.90
2017-11-04T11:51:00.170Z,99.90
2017-11-04T11:53:33.750Z,99.90
2017-11-04T11:56:07.352Z,99.90
2017-11-04T11:58:40.967Z,99.90
2017-11-04T12:01:15.470Z,99.90
2017-11-04T12:03:49.241Z,99.90
2017-11-04T12:06:22.791Z,99.90
2017-11-04T12:08:56.377Z,99.90
2017-11-04T12:11:29.894Z,99.90
2017-11-04T12:14:03.490Z,99.90
2017-11-04T12:16:37.215Z,99.90
2017-11-04T12:19:11.493Z,99.90
2017-11-04T12:21:45.195Z,99.90
2017-11-04T12:24:18.776Z,99.90
2017-11-04T12:26:52.297Z,99.90
2017-11-04T12:29:26.021Z,99.90
2017-11-04T12:31:59.685Z,99.90
2017-11-04T12:34:33.231Z,99.90
2017-11-04T12:37:06.994Z,99.90
2017-11-04T12:39:40.523Z,99.90
2017-11-04T12:42:14.002Z,99.90
2017-11-04T12:44:47.689Z,99.90
2017-11-04T12:47:22.016Z,99.90
2017-11-04T12:49:56.367Z,99.20
2017-11-04T12:52:29.928Z,99.10
2017-11-04T12:55:03.564Z,99.90
2017-11-04T12:57:38.177Z,99.00
2017-11-04T13:00:11.813Z,99.10
2017-11-04T13:02:45.335Z,97.80
2017-11-04T13:05:18.910Z,94.00
2017-11-04T13:07:52.449Z,96.80
2017-11-04T13:10:25.986Z,95.10
2017-11-04T13:12:59.551Z,97.70
2017-11-04T13:15:33.149Z,93.50
2017-11-04T13:18:06.758Z,96.10
2017-11-04T13:20:40.429Z,93.90
2017-11-04T13:23:13.969Z,94.60
2017-11-04T13:25:48.328Z,93.70
2017-11-04T13:28:22.153Z,93.70
2017-11-04T13:30:55.791Z,92.10
2017-11-04T13:33:29.384Z,90.60
2017-11-04T13:36:03.702Z,92.90
2017-11-04T13:38:37.478Z,92.90
2017-11-04T13:41:11.043Z,90.50
2017-11-04T13:43:45.330Z,85.00
